Pagrindinis puslapis
METAR-TAF:

METAR-TAF

Oro uostai :

Sankt Galenas, Šveicarija

platuma: 47-29-06N, ilguma: 009-33-43E, Aukštis: 398 m

Dabartinis oras

Ataskaita buvo paskelbta 32 minutes, ne 21:20 UTC
Vėjas 1 kt nuo kintamojo kryptimis
Temperatūra 5°C
Drėgmė 87%
Slėgis 1009 hPa
Matomumas 10 km arba daugiau
Išsisklaidę debesys ne aukštis 8000 ft
Su prošvaistėmis ne aukštis 9000 ft

METAR: LSZR 272120Z AUTO VRB01KT 9999 SCT080 BKN090 05/03 Q1009

Laikas: 22:52 (21:52 UTC)

Prognozė

Ataskaita buvo paskelbta 7 valandos ir 27 minutes, ne 14:25 UTC
Prognozė galioja nuo 27 metu 15 UTC su 27 metu 24 UTC
Vėjas 3 kt nuo kintamojo kryptimis
Matomumas 10 km arba daugiau
Išsisklaidę debesys ne aukštis 10000 ft
Laikinai
nuo 27 metu 20 UTC su 27 metu 24 UTC
Vėjas 8 kt iš Vakarų
lietus

TAF: LSZR 271425Z 2715/2724 VRB03KT 9999 SCT100 TEMPO 2720/2724 28008KT RA

Orai ataskaitas ir orų prognozės (METAR, TAF).

turimą stotys yra geltonos ir raudonos taškus žemėlapyje.

Perkelti pele per norėdami pamatyti stoties vardą.

Tada spustelėkite, norėdami matyti oro stebėjimo ir prognozės.

Norėdami pakeisti žemėlapį: spustelėkite ant žalios mygtukų su juodo kryžiaus žemyn,; žalią mygtuką su brūkšneliu, jei norite nutolinti; arba žalių rodyklių gretimoms žemėlapius.


METAR-TAF: